sensor_id;sensor_type;location;lat;lon;timestamp;temperature;humidity
45012;DHT22;63444;48.148;11.542;2022-12-18T00:00:57;-2.10;99.90
45012;DHT22;63444;48.148;11.542;2022-12-18T00:03:22;-2.10;99.90
45012;DHT22;63444;48.148;11.542;2022-12-18T00:05:52;-2.00;99.90
45012;DHT22;63444;48.148;11.542;2022-12-18T00:08:18;-2.10;99.90
45012;DHT22;63444;48.148;11.542;2022-12-18T00:10:44;-2.10;99.90
45012;DHT22;63444;48.148;11.542;2022-12-18T00:13:11;-2.20;99.90
45012;DHT22;63444;48.148;11.542;2022-12-18T00:15:38;-2.30;99.90
45012;DHT22;63444;48.148;11.542;2022-12-18T00:18:05;-2.30;99.90
45012;DHT22;63444;48.148;11.542;2022-12-18T00:20:32;-2.40;99.90
45012;DHT22;63444;48.148;11.542;2022-12-18T00:23:00;-2.40;99.90
45012;DHT22;63444;48.148;11.542;2022-12-18T00:25:26;-2.40;99.90
45012;DHT22;63444;48.148;11.542;2022-12-18T00:27:55;-2.40;99.90
45012;DHT22;63444;48.148;11.542;2022-12-18T00:30:20;-2.40;99.90
45012;DHT22;63444;48.148;11.542;2022-12-18T00:32:46;-2.40;99.90
45012;DHT22;63444;48.148;11.542;2022-12-18T00:35:11;-2.30;99.90
45012;DHT22;63444;48.148;11.542;2022-12-18T00:37:37;-2.30;99.90
45012;DHT22;63444;48.148;11.542;2022-12-18T00:40:03;-2.30;99.90
45012;DHT22;63444;48.148;11.542;2022-12-18T00:42:28;-2.30;99.90
45012;DHT22;63444;48.148;11.542;2022-12-18T00:45:13;-2.30;99.90
45012;DHT22;63444;48.148;11.542;2022-12-18T00:47:38;-2.20;99.90
45012;DHT22;63444;48.148;11.542;2022-12-18T00:50:04;-2.20;99.90
45012;DHT22;63444;48.148;11.542;2022-12-18T00:52:30;-2.20;99.90
45012;DHT22;63444;48.148;11.542;2022-12-18T00:54:56;-2.20;99.90
45012;DHT22;63444;48.148;11.542;2022-12-18T00:57:21;-2.20;99.90
45012;DHT22;63444;48.148;11.542;2022-12-18T00:59:47;-2.20;99.90
45012;DHT22;63444;48.148;11.542;2022-12-18T01:02:13;-2.20;99.90
45012;DHT22;63444;48.148;11.542;2022-12-18T01:04:38;-2.20;99.90
45012;DHT22;63444;48.148;11.542;2022-12-18T01:07:04;-2.30;99.90
45012;DHT22;63444;48.148;11.542;2022-12-18T01:09:29;-2.30;99.90
45012;DHT22;63444;48.148;11.542;2022-12-18T01:11:55;-2.40;99.90
45012;DHT22;63444;48.148;11.542;2022-12-18T01:14:20;-2.30;99.90
45012;DHT22;63444;48.148;11.542;2022-12-18T01:16:46;-2.30;99.90
45012;DHT22;63444;48.148;11.542;2022-12-18T01:19:11;-2.30;99.90
45012;DHT22;63444;48.148;11.542;2022-12-18T01:21:37;-2.30;99.90
45012;DHT22;63444;48.148;11.542;2022-12-18T01:24:03;-2.30;99.90
45012;DHT22;63444;48.148;11.542;2022-12-18T01:26:29;-2.30;99.90
45012;DHT22;63444;48.148;11.542;2022-12-18T01:28:56;-2.40;99.90
45012;DHT22;63444;48.148;11.542;2022-12-18T01:31:24;-2.40;99.90
45012;DHT22;63444;48.148;11.542;2022-12-18T01:33:51;-2.30;99.90
45012;DHT22;63444;48.148;11.542;2022-12-18T01:36:25;-2.30;99.90
45012;DHT22;63444;48.148;11.542;2022-12-18T01:38:51;-2.30;99.90
45012;DHT22;63444;48.148;11.542;2022-12-18T01:41:21;-2.40;99.90
45012;DHT22;63444;48.148;11.542;2022-12-18T01:43:54;-2.40;99.90
45012;DHT22;63444;48.148;11.542;2022-12-18T01:46:21;-2.50;99.90
45012;DHT22;63444;48.148;11.542;2022-12-18T01:49:08;-2.50;99.90
45012;DHT22;63444;48.148;11.542;2022-12-18T01:51:33;-2.50;99.90
45012;DHT22;63444;48.148;11.542;2022-12-18T01:53:59;-2.40;99.90
45012;DHT22;63444;48.148;11.542;2022-12-18T01:56:26;-2.40;99.90
45012;DHT22;63444;48.148;11.542;2022-12-18T01:59:04;-2.40;99.90
45012;DHT22;63444;48.148;11.542;2022-12-18T02:01:32;-2.50;99.90
45012;DHT22;63444;48.148;11.542;2022-12-18T02:04:22;-2.50;99.90
45012;DHT22;63444;48.148;11.542;2022-12-18T02:07:00;-2.60;99.90
45012;DHT22;63444;48.148;11.542;2022-12-18T02:09:33;-2.50;99.90
45012;DHT22;63444;48.148;11.542;2022-12-18T02:12:16;-2.50;99.90
45012;DHT22;63444;48.148;11.542;2022-12-18T02:15:00;-2.60;99.90
45012;DHT22;63444;48.148;11.542;2022-12-18T02:26:01;-2.80;99.90
45012;DHT22;63444;48.148;11.542;2022-12-18T02:28:34;-2.80;99.90
45012;DHT22;63444;48.148;11.542;2022-12-18T02:31:03;-2.80;99.90
45012;DHT22;63444;48.148;11.542;2022-12-18T02:33:33;-2.70;99.90
45012;DHT22;63444;48.148;11.542;2022-12-18T02:36:00;-2.80;99.90
45012;DHT22;63444;48.148;11.542;2022-12-18T02:38:27;-2.70;99.90
45012;DHT22;63444;48.148;11.542;2022-12-18T02:40:54;-2.70;99.90
45012;DHT22;63444;48.148;11.542;2022-12-18T02:43:21;-2.70;99.90
45012;DHT22;63444;48.148;11.542;2022-12-18T02:45:53;-2.70;99.90
45012;DHT22;63444;48.148;11.542;2022-12-18T02:48:24;-2.70;99.90
45012;DHT22;63444;48.148;11.542;2022-12-18T02:51:46;-2.60;99.90
45012;DHT22;63444;48.148;11.542;2022-12-18T02:56:43;-2.70;99.90
45012;DHT22;63444;48.148;11.542;2022-12-18T02:59:18;-2.70;99.90
45012;DHT22;63444;48.148;11.542;2022-12-18T03:05:00;-2.60;99.90
45012;DHT22;63444;48.148;11.542;2022-12-18T03:07:37;-2.60;99.90
45012;DHT22;63444;48.148;11.542;2022-12-18T03:10:06;-2.60;99.90
45012;DHT22;63444;48.148;11.542;2022-12-18T03:12:42;-2.60;99.90
45012;DHT22;63444;48.148;11.542;2022-12-18T03:15:24;-2.70;99.90
45012;DHT22;63444;48.148;11.542;2022-12-18T03:17:56;-2.70;99.90
45012;DHT22;63444;48.148;11.542;2022-12-18T03:20:25;-2.70;99.90
45012;DHT22;63444;48.148;11.542;2022-12-18T03:22:55;-2.80;99.90
45012;DHT22;63444;48.148;11.542;2022-12-18T03:25:23;-2.70;99.90
45012;DHT22;63444;48.148;11.542;2022-12-18T03:27:55;-2.70;99.90
45012;DHT22;63444;48.148;11.542;2022-12-18T03:30:23;-2.70;99.90
45012;DHT22;63444;48.148;11.542;2022-12-18T03:33:09;-2.80;99.90
45012;DHT22;63444;48.148;11.542;2022-12-18T03:35:40;-2.80;99.90
45012;DHT22;63444;48.148;11.542;2022-12-18T03:38:09;-2.80;99.90
45012;DHT22;63444;48.148;11.542;2022-12-18T03:43:34;-2.80;99.90
45012;DHT22;63444;48.148;11.542;2022-12-18T03:48:52;-2.80;99.90
45012;DHT22;63444;48.148;11.542;2022-12-18T03:51:40;-2.70;99.90
45012;DHT22;63444;48.148;11.542;2022-12-18T03:54:08;-2.70;99.90
45012;DHT22;63444;48.148;11.542;2022-12-18T03:56:39;-2.80;99.90
45012;DHT22;63444;48.148;11.542;2022-12-18T03:59:06;-2.80;99.90
45012;DHT22;63444;48.148;11.542;2022-12-18T04:01:38;-2.80;99.90
45012;DHT22;63444;48.148;11.542;2022-12-18T04:04:05;-2.70;99.90
45012;DHT22;63444;48.148;11.542;2022-12-18T04:06:32;-2.80;99.90
45012;DHT22;63444;48.148;11.542;2022-12-18T04:09:00;-2.80;99.90
45012;DHT22;63444;48.148;11.542;2022-12-18T04:11:26;-2.80;99.90
45012;DHT22;63444;48.148;11.542;2022-12-18T04:13:56;-2.70;99.90
45012;DHT22;63444;48.148;11.542;2022-12-18T04:16:23;-2.60;99.90
45012;DHT22;63444;48.148;11.542;2022-12-18T04:18:49;-2.60;99.90
45012;DHT22;63444;48.148;11.542;2022-12-18T04:21:14;-2.60;99.90
45012;DHT22;63444;48.148;11.542;2022-12-18T04:23:40;-2.60;99.90
45012;DHT22;63444;48.148;11.542;2022-12-18T04:26:06;-2.60;99.90
45012;DHT22;63444;48.148;11.542;2022-12-18T04:28:31;-2.60;99.90
45012;DHT22;63444;48.148;11.542;2022-12-18T04:30:57;-2.50;99.90
45012;DHT22;63444;48.148;11.542;2022-12-18T04:33:22;-2.50;99.90
45012;DHT22;63444;48.148;11.542;2022-12-18T04:35:48;-2.50;99.90
45012;DHT22;63444;48.148;11.542;2022-12-18T04:38:14;-2.60;99.90
45012;DHT22;63444;48.148;11.542;2022-12-18T04:40:39;-2.60;99.90
45012;DHT22;63444;48.148;11.542;2022-12-18T04:43:05;-2.60;99.90
45012;DHT22;63444;48.148;11.542;2022-12-18T04:45:31;-2.60;99.90
45012;DHT22;63444;48.148;11.542;2022-12-18T04:47:58;-2.80;99.90
45012;DHT22;63444;48.148;11.542;2022-12-18T04:50:24;-2.90;99.90
45012;DHT22;63444;48.148;11.542;2022-12-18T04:52:49;-2.90;99.90
45012;DHT22;63444;48.148;11.542;2022-12-18T04:55:15;-2.80;99.90
45012;DHT22;63444;48.148;11.542;2022-12-18T04:57:40;-2.80;99.90
45012;DHT22;63444;48.148;11.542;2022-12-18T05:00:07;-2.70;99.90
45012;DHT22;63444;48.148;11.542;2022-12-18T05:02:32;-2.70;99.90
45012;DHT22;63444;48.148;11.542;2022-12-18T05:04:58;-2.70;99.90
45012;DHT22;63444;48.148;11.542;2022-12-18T05:07:24;-2.70;99.90
45012;DHT22;63444;48.148;11.542;2022-12-18T05:09:49;-2.70;99.90
45012;DHT22;63444;48.148;11.542;2022-12-18T05:12:15;-2.70;99.90
45012;DHT22;63444;48.148;11.542;2022-12-18T05:14:42;-2.70;99.90
45012;DHT22;63444;48.148;11.542;2022-12-18T05:17:08;-2.70;99.90
45012;DHT22;63444;48.148;11.542;2022-12-18T05:19:33;-2.60;99.90
45012;DHT22;63444;48.148;11.542;2022-12-18T05:21:59;-2.60;99.90
45012;DHT22;63444;48.148;11.542;2022-12-18T05:24:25;-2.50;99.90
45012;DHT22;63444;48.148;11.542;2022-12-18T05:26:50;-2.50;99.90
45012;DHT22;63444;48.148;11.542;2022-12-18T05:29:16;-2.60;99.90
45012;DHT22;63444;48.148;11.542;2022-12-18T05:31:41;-2.60;99.90
45012;DHT22;63444;48.148;11.542;2022-12-18T05:34:07;-2.60;99.90
45012;DHT22;63444;48.148;11.542;2022-12-18T05:36:33;-2.60;99.90
45012;DHT22;63444;48.148;11.542;2022-12-18T05:38:59;-2.50;99.90
45012;DHT22;63444;48.148;11.542;2022-12-18T05:41:25;-2.50;99.90
45012;DHT22;63444;48.148;11.542;2022-12-18T05:43:51;-2.50;99.90
45012;DHT22;63444;48.148;11.542;2022-12-18T05:46:17;-2.50;99.90
45012;DHT22;63444;48.148;11.542;2022-12-18T05:48:44;-2.50;99.90
45012;DHT22;63444;48.148;11.542;2022-12-18T05:51:12;-2.60;99.90
45012;DHT22;63444;48.148;11.542;2022-12-18T05:53:40;-2.60;99.90
45012;DHT22;63444;48.148;11.542;2022-12-18T05:56:09;-2.60;99.90
45012;DHT22;63444;48.148;11.542;2022-12-18T05:58:35;-2.60;99.90
45012;DHT22;63444;48.148;11.542;2022-12-18T06:01:13;-2.60;99.90
45012;DHT22;63444;48.148;11.542;2022-12-18T06:03:39;-2.60;99.90
45012;DHT22;63444;48.148;11.542;2022-12-18T06:06:13;-2.60;99.90
45012;DHT22;63444;48.148;11.542;2022-12-18T06:08:39;-2.70;99.90
45012;DHT22;63444;48.148;11.542;2022-12-18T06:11:04;-2.60;99.90
45012;DHT22;63444;48.148;11.542;2022-12-18T06:13:30;-2.70;99.90
45012;DHT22;63444;48.148;11.542;2022-12-18T06:15:55;-2.70;99.90
45012;DHT22;63444;48.148;11.542;2022-12-18T06:18:21;-2.70;99.90
45012;DHT22;63444;48.148;11.542;2022-12-18T06:20:55;-2.70;99.90
45012;DHT22;63444;48.148;11.542;2022-12-18T06:23:21;-2.70;99.90
45012;DHT22;63444;48.148;11.542;2022-12-18T06:25:46;-2.70;99.90
45012;DHT22;63444;48.148;11.542;2022-12-18T06:28:12;-2.70;99.90
45012;DHT22;63444;48.148;11.542;2022-12-18T06:30:37;-2.70;99.90
45012;DHT22;63444;48.148;11.542;2022-12-18T06:33:04;-2.70;99.90
45012;DHT22;63444;48.148;11.542;2022-12-18T06:35:31;-2.80;99.90
45012;DHT22;63444;48.148;11.542;2022-12-18T06:37:57;-2.80;99.90
45012;DHT22;63444;48.148;11.542;2022-12-18T06:40:23;-2.80;99.90
45012;DHT22;63444;48.148;11.542;2022-12-18T06:42:48;-2.80;99.90
45012;DHT22;63444;48.148;11.542;2022-12-18T06:45:14;-2.80;99.90
45012;DHT22;63444;48.148;11.542;2022-12-18T06:47:39;-2.80;99.90
45012;DHT22;63444;48.148;11.542;2022-12-18T06:50:05;-2.80;99.90
45012;DHT22;63444;48.148;11.542;2022-12-18T06:52:32;-2.80;99.90
45012;DHT22;63444;48.148;11.542;2022-12-18T06:54:58;-2.70;99.90
45012;DHT22;63444;48.148;11.542;2022-12-18T06:57:23;-2.80;99.90
45012;DHT22;63444;48.148;11.542;2022-12-18T06:59:49;-2.90;99.90
45012;DHT22;63444;48.148;11.542;2022-12-18T07:02:14;-3.00;99.90
45012;DHT22;63444;48.148;11.542;2022-12-18T07:04:40;-3.00;99.90
45012;DHT22;63444;48.148;11.542;2022-12-18T07:07:05;-2.90;99.90
45012;DHT22;63444;48.148;11.542;2022-12-18T07:09:31;-3.00;99.90
45012;DHT22;63444;48.148;11.542;2022-12-18T07:11:57;-2.90;99.90
45012;DHT22;63444;48.148;11.542;2022-12-18T07:14:23;-2.80;99.90
45012;DHT22;63444;48.148;11.542;2022-12-18T07:16:49;-2.80;99.90
45012;DHT22;63444;48.148;11.542;2022-12-18T07:19:15;-2.70;99.90
45012;DHT22;63444;48.148;11.542;2022-12-18T07:21:40;-2.70;99.90
45012;DHT22;63444;48.148;11.542;2022-12-18T07:24:06;-2.60;99.90
45012;DHT22;63444;48.148;11.542;2022-12-18T07:26:32;-2.50;99.90
45012;DHT22;63444;48.148;11.542;2022-12-18T07:28:58;-2.50;99.90
45012;DHT22;63444;48.148;11.542;2022-12-18T07:31:24;-2.40;99.90
45012;DHT22;63444;48.148;11.542;2022-12-18T07:33:50;-2.40;99.90
45012;DHT22;63444;48.148;11.542;2022-12-18T07:36:16;-2.50;99.90
45012;DHT22;63444;48.148;11.542;2022-12-18T07:38:42;-2.30;99.90
45012;DHT22;63444;48.148;11.542;2022-12-18T07:41:11;-2.50;99.90
45012;DHT22;63444;48.148;11.542;2022-12-18T07:43:38;-2.50;99.90
45012;DHT22;63444;48.148;11.542;2022-12-18T07:46:04;-2.50;99.90
45012;DHT22;63444;48.148;11.542;2022-12-18T07:48:30;-2.50;99.90
45012;DHT22;63444;48.148;11.542;2022-12-18T07:51:04;-2.40;99.90
45012;DHT22;63444;48.148;11.542;2022-12-18T07:53:33;-2.40;99.90
45012;DHT22;63444;48.148;11.542;2022-12-18T07:56:00;-2.40;99.90
45012;DHT22;63444;48.148;11.542;2022-12-18T07:58:27;-2.60;99.90
45012;DHT22;63444;48.148;11.542;2022-12-18T08:00:53;-2.70;99.90
45012;DHT22;63444;48.148;11.542;2022-12-18T08:03:19;-3.00;99.90
45012;DHT22;63444;48.148;11.542;2022-12-18T08:05:45;-3.00;99.90
45012;DHT22;63444;48.148;11.542;2022-12-18T08:08:12;-3.10;99.90
45012;DHT22;63444;48.148;11.542;2022-12-18T08:10:38;-3.20;99.90
45012;DHT22;63444;48.148;11.542;2022-12-18T08:13:04;-3.20;99.90
45012;DHT22;63444;48.148;11.542;2022-12-18T08:15:29;-3.20;99.90
45012;DHT22;63444;48.148;11.542;2022-12-18T08:17:58;-3.10;99.90
45012;DHT22;63444;48.148;11.542;2022-12-18T08:20:24;-3.10;99.90
45012;DHT22;63444;48.148;11.542;2022-12-18T08:22:49;-3.20;99.90
45012;DHT22;63444;48.148;11.542;2022-12-18T08:25:15;-3.20;99.90
45012;DHT22;63444;48.148;11.542;2022-12-18T08:27:40;-3.10;99.90
45012;DHT22;63444;48.148;11.542;2022-12-18T08:30:07;-3.00;99.90
45012;DHT22;63444;48.148;11.542;2022-12-18T08:32:33;-2.90;99.90
45012;DHT22;63444;48.148;11.542;2022-12-18T08:34:59;-2.80;99.90
45012;DHT22;63444;48.148;11.542;2022-12-18T08:37:24;-2.80;99.90
45012;DHT22;63444;48.148;11.542;2022-12-18T08:39:50;-2.90;99.90
45012;DHT22;63444;48.148;11.542;2022-12-18T08:42:15;-2.80;99.90
45012;DHT22;63444;48.148;11.542;2022-12-18T08:45:01;-2.80;99.90
45012;DHT22;63444;48.148;11.542;2022-12-18T08:47:27;-2.80;99.90
45012;DHT22;63444;48.148;11.542;2022-12-18T08:49:52;-2.70;99.90
45012;DHT22;63444;48.148;11.542;2022-12-18T08:52:18;-2.60;99.90
45012;DHT22;63444;48.148;11.542;2022-12-18T08:54:44;-2.50;99.90
45012;DHT22;63444;48.148;11.542;2022-12-18T08:57:11;-2.50;99.90
45012;DHT22;63444;48.148;11.542;2022-12-18T08:59:36;-2.50;99.90
45012;DHT22;63444;48.148;11.542;2022-12-18T09:02:02;-2.50;99.90
45012;DHT22;63444;48.148;11.542;2022-12-18T09:04:27;-2.50;99.90
45012;DHT22;63444;48.148;11.542;2022-12-18T09:06:53;-2.60;99.90
45012;DHT22;63444;48.148;11.542;2022-12-18T09:09:21;-2.70;99.90
45012;DHT22;63444;48.148;11.542;2022-12-18T09:11:47;-2.70;99.90
45012;DHT22;63444;48.148;11.542;2022-12-18T09:14:12;-2.60;99.90
45012;DHT22;63444;48.148;11.542;2022-12-18T09:16:38;-2.50;99.90
45012;DHT22;63444;48.148;11.542;2022-12-18T09:19:04;-2.50;99.90
45012;DHT22;63444;48.148;11.542;2022-12-18T09:21:33;-2.60;99.90
45012;DHT22;63444;48.148;11.542;2022-12-18T09:23:59;-2.70;99.90
45012;DHT22;63444;48.148;11.542;2022-12-18T09:26:25;-2.70;99.90
45012;DHT22;63444;48.148;11.542;2022-12-18T09:28:52;-2.70;99.90
45012;DHT22;63444;48.148;11.542;2022-12-18T09:31:20;-2.70;99.90
45012;DHT22;63444;48.148;11.542;2022-12-18T09:33:46;-2.70;99.90
45012;DHT22;63444;48.148;11.542;2022-12-18T09:36:14;-2.80;99.90
45012;DHT22;63444;48.148;11.542;2022-12-18T09:38:40;-2.90;99.90
45012;DHT22;63444;48.148;11.542;2022-12-18T09:44:01;-2.70;99.90
45012;DHT22;63444;48.148;11.542;2022-12-18T09:46:37;-2.60;99.90
45012;DHT22;63444;48.148;11.542;2022-12-18T09:49:12;-2.50;99.90
45012;DHT22;63444;48.148;11.542;2022-12-18T09:54:25;-2.40;99.90
45012;DHT22;63444;48.148;11.542;2022-12-18T09:56:51;-2.40;99.90
45012;DHT22;63444;48.148;11.542;2022-12-18T09:59:22;-2.40;99.90
45012;DHT22;63444;48.148;11.542;2022-12-18T10:01:49;-2.40;99.90
45012;DHT22;63444;48.148;11.542;2022-12-18T10:04:15;-2.50;99.90
45012;DHT22;63444;48.148;11.542;2022-12-18T10:06:58;-2.50;99.90
45012;DHT22;63444;48.148;11.542;2022-12-18T10:09:49;-2.50;99.90
45012;DHT22;63444;48.148;11.542;2022-12-18T10:15:21;-2.50;99.90
45012;DHT22;63444;48.148;11.542;2022-12-18T10:21:00;-2.40;99.90
45012;DHT22;63444;48.148;11.542;2022-12-18T10:26:14;-2.40;99.90
45012;DHT22;63444;48.148;11.542;2022-12-18T10:28:41;-2.40;99.90
45012;DHT22;63444;48.148;11.542;2022-12-18T10:31:18;-2.40;99.90
45012;DHT22;63444;48.148;11.542;2022-12-18T10:33:45;-2.40;99.90
45012;DHT22;63444;48.148;11.542;2022-12-18T10:36:10;-2.50;99.90
45012;DHT22;63444;48.148;11.542;2022-12-18T10:38:36;-2.40;99.90
45012;DHT22;63444;48.148;11.542;2022-12-18T10:41:22;-2.40;99.90
45012;DHT22;63444;48.148;11.542;2022-12-18T10:44:17;-2.20;99.90
45012;DHT22;63444;48.148;11.542;2022-12-18T10:46:45;-2.20;99.90
45012;DHT22;63444;48.148;11.542;2022-12-18T10:49:26;-2.20;99.90
45012;DHT22;63444;48.148;11.542;2022-12-18T10:52:18;-2.10;99.90
45012;DHT22;63444;48.148;11.542;2022-12-18T10:54:50;-2.00;99.90
45012;DHT22;63444;48.148;11.542;2022-12-18T10:59:54;-1.90;99.90
45012;DHT22;63444;48.148;11.542;2022-12-18T11:02:35;-1.80;99.90
45012;DHT22;63444;48.148;11.542;2022-12-18T11:05:02;-1.90;99.90
45012;DHT22;63444;48.148;11.542;2022-12-18T11:07:48;-1.90;99.90
45012;DHT22;63444;48.148;11.542;2022-12-18T11:10:19;-1.90;99.90
45012;DHT22;63444;48.148;11.542;2022-12-18T11:12:46;-1.90;99.90
45012;DHT22;63444;48.148;11.542;2022-12-18T11:15:30;-1.80;99.90
45012;DHT22;63444;48.148;11.542;2022-12-18T11:17:56;-1.70;99.90
45012;DHT22;63444;48.148;11.542;2022-12-18T11:20:34;-1.60;99.90
45012;DHT22;63444;48.148;11.542;2022-12-18T11:23:05;-1.60;99.90
45012;DHT22;63444;48.148;11.542;2022-12-18T11:25:32;-1.50;99.90
45012;DHT22;63444;48.148;11.542;2022-12-18T11:31:27;-1.40;99.90
45012;DHT22;63444;48.148;11.542;2022-12-18T11:36:42;-1.30;99.90
45012;DHT22;63444;48.148;11.542;2022-12-18T11:39:23;-1.30;99.90
45012;DHT22;63444;48.148;11.542;2022-12-18T11:41:54;-1.30;99.90
45012;DHT22;63444;48.148;11.542;2022-12-18T11:44:52;-1.30;99.90
45012;DHT22;63444;48.148;11.542;2022-12-18T11:47:38;-1.30;99.90
45012;DHT22;63444;48.148;11.542;2022-12-18T11:50:14;-1.20;99.90
45012;DHT22;63444;48.148;11.542;2022-12-18T11:52:41;-1.20;99.90
45012;DHT22;63444;48.148;11.542;2022-12-18T12:00:26;-1.10;99.90
45012;DHT22;63444;48.148;11.542;2022-12-18T12:03:11;-1.10;99.90
45012;DHT22;63444;48.148;11.542;2022-12-18T12:14:19;-1.30;99.90
45012;DHT22;63444;48.148;11.542;2022-12-18T12:20:31;-1.20;99.90
45012;DHT22;63444;48.148;11.542;2022-12-18T12:23:13;-1.20;99.90
45012;DHT22;63444;48.148;11.542;2022-12-18T12:25:45;-1.20;99.90
45012;DHT22;63444;48.148;11.542;2022-12-18T12:31:28;-1.20;99.90
45012;DHT22;63444;48.148;11.542;2022-12-18T12:34:54;-1.20;99.90
45012;DHT22;63444;48.148;11.542;2022-12-18T12:37:22;-1.20;99.90
45012;DHT22;63444;48.148;11.542;2022-12-18T12:39:53;-1.20;99.90
45012;DHT22;63444;48.148;11.542;2022-12-18T12:42:58;-1.30;99.90
45012;DHT22;63444;48.148;11.542;2022-12-18T12:45:56;-1.30;99.90
45012;DHT22;63444;48.148;11.542;2022-12-18T12:48:43;-1.20;99.90
45012;DHT22;63444;48.148;11.542;2022-12-18T12:51:17;-1.20;99.90
45012;DHT22;63444;48.148;11.542;2022-12-18T12:53:43;-1.20;99.90
45012;DHT22;63444;48.148;11.542;2022-12-18T12:56:12;-1.20;99.90
45012;DHT22;63444;48.148;11.542;2022-12-18T12:58:49;-1.20;99.90
45012;DHT22;63444;48.148;11.542;2022-12-18T13:01:41;-1.20;99.90
45012;DHT22;63444;48.148;11.542;2022-12-18T13:04:41;-1.10;99.90
45012;DHT22;63444;48.148;11.542;2022-12-18T13:10:11;-1.10;99.90
45012;DHT22;63444;48.148;11.542;2022-12-18T13:12:50;-1.00;99.90
45012;DHT22;63444;48.148;11.542;2022-12-18T13:20:35;-0.90;99.90
45012;DHT22;63444;48.148;11.542;2022-12-18T13:31:02;-1.30;99.90
45012;DHT22;63444;48.148;11.542;2022-12-18T13:36:12;-1.30;99.90
45012;DHT22;63444;48.148;11.542;2022-12-18T13:38:40;-1.40;99.90
45012;DHT22;63444;48.148;11.542;2022-12-18T13:43:55;-1.50;99.90
45012;DHT22;63444;48.148;11.542;2022-12-18T13:46:26;-1.50;99.90
45012;DHT22;63444;48.148;11.542;2022-12-18T13:51:44;-1.50;99.90
45012;DHT22;63444;48.148;11.542;2022-12-18T13:56:51;-1.50;99.90
45012;DHT22;63444;48.148;11.542;2022-12-18T13:59:22;-1.50;99.90
45012;DHT22;63444;48.148;11.542;2022-12-18T14:01:50;-1.50;99.90
45012;DHT22;63444;48.148;11.542;2022-12-18T14:04:30;-1.60;99.90
45012;DHT22;63444;48.148;11.542;2022-12-18T14:07:06;-1.60;99.90
45012;DHT22;63444;48.148;11.542;2022-12-18T14:09:39;-1.60;99.90
45012;DHT22;63444;48.148;11.542;2022-12-18T14:12:06;-1.70;99.90
45012;DHT22;63444;48.148;11.542;2022-12-18T14:14:58;-1.70;99.90
45012;DHT22;63444;48.148;11.542;2022-12-18T14:17:25;-1.70;99.90
45012;DHT22;63444;48.148;11.542;2022-12-18T14:19:51;-1.80;99.90
45012;DHT22;63444;48.148;11.542;2022-12-18T14:22:23;-1.70;99.90
45012;DHT22;63444;48.148;11.542;2022-12-18T14:27:44;-1.70;99.90
45012;DHT22;63444;48.148;11.542;2022-12-18T14:30:31;-1.70;99.90
45012;DHT22;63444;48.148;11.542;2022-12-18T14:33:14;-1.70;99.90
45012;DHT22;63444;48.148;11.542;2022-12-18T14:35:42;-1.90;99.90
45012;DHT22;63444;48.148;11.542;2022-12-18T14:38:21;-2.10;99.90
45012;DHT22;63444;48.148;11.542;2022-12-18T14:40:58;-2.10;99.90
45012;DHT22;63444;48.148;11.542;2022-12-18T14:43:26;-2.20;99.90
45012;DHT22;63444;48.148;11.542;2022-12-18T14:45:52;-2.30;99.90
45012;DHT22;63444;48.148;11.542;2022-12-18T14:51:02;-2.30;99.90
45012;DHT22;63444;48.148;11.542;2022-12-18T14:54:05;-2.30;99.90
45012;DHT22;63444;48.148;11.542;2022-12-18T14:56:42;-2.30;99.90
45012;DHT22;63444;48.148;11.542;2022-12-18T14:59:21;-2.20;99.90
45012;DHT22;63444;48.148;11.542;2022-12-18T15:02:07;-2.10;99.90
45012;DHT22;63444;48.148;11.542;2022-12-18T15:04:38;-2.20;99.90
45012;DHT22;63444;48.148;11.542;2022-12-18T15:07:23;-2.10;99.90
45012;DHT22;63444;48.148;11.542;2022-12-18T15:10:11;-2.10;99.90
45012;DHT22;63444;48.148;11.542;2022-12-18T15:12:44;-2.10;99.90
45012;DHT22;63444;48.148;11.542;2022-12-18T15:20:52;-2.20;99.90
45012;DHT22;63444;48.148;11.542;2022-12-18T15:23:26;-2.20;99.90
45012;DHT22;63444;48.148;11.542;2022-12-18T15:25:57;-2.20;99.90
45012;DHT22;63444;48.148;11.542;2022-12-18T15:28:26;-2.10;99.90
45012;DHT22;63444;48.148;11.542;2022-12-18T15:31:01;-2.20;99.90
45012;DHT22;63444;48.148;11.542;2022-12-18T15:33:31;-2.10;99.90
45012;DHT22;63444;48.148;11.542;2022-12-18T15:35:58;-2.20;99.90
45012;DHT22;63444;48.148;11.542;2022-12-18T15:38:24;-2.20;99.90
45012;DHT22;63444;48.148;11.542;2022-12-18T15:40:50;-2.10;99.90
45012;DHT22;63444;48.148;11.542;2022-12-18T15:43:15;-2.20;99.90
45012;DHT22;63444;48.148;11.542;2022-12-18T15:46:13;-2.20;99.90
45012;DHT22;63444;48.148;11.542;2022-12-18T15:48:41;-2.20;99.90
45012;DHT22;63444;48.148;11.542;2022-12-18T15:53:42;-2.40;99.90
45012;DHT22;63444;48.148;11.542;2022-12-18T15:56:12;-2.40;99.90
45012;DHT22;63444;48.148;11.542;2022-12-18T15:58:57;-2.50;99.90
45012;DHT22;63444;48.148;11.542;2022-12-18T16:01:24;-2.50;99.90
45012;DHT22;63444;48.148;11.542;2022-12-18T16:03:50;-2.60;99.90
45012;DHT22;63444;48.148;11.542;2022-12-18T16:06:16;-2.60;99.90
45012;DHT22;63444;48.148;11.542;2022-12-18T16:08:41;-2.70;99.90
45012;DHT22;63444;48.148;11.542;2022-12-18T16:11:24;-2.70;99.90
45012;DHT22;63444;48.148;11.542;2022-12-18T16:14:25;-2.70;99.90
45012;DHT22;63444;48.148;11.542;2022-12-18T16:16:56;-2.60;99.90
45012;DHT22;63444;48.148;11.542;2022-12-18T16:19:22;-2.60;99.90
45012;DHT22;63444;48.148;11.542;2022-12-18T16:21:49;-2.60;99.90
45012;DHT22;63444;48.148;11.542;2022-12-18T16:24:23;-2.60;99.90
45012;DHT22;63444;48.148;11.542;2022-12-18T16:26:50;-2.70;99.90
45012;DHT22;63444;48.148;11.542;2022-12-18T16:29:22;-2.70;99.90
45012;DHT22;63444;48.148;11.542;2022-12-18T16:31:58;-2.80;99.90
45012;DHT22;63444;48.148;11.542;2022-12-18T16:34:27;-2.80;99.90
45012;DHT22;63444;48.148;11.542;2022-12-18T16:37:00;-2.80;99.90
45012;DHT22;63444;48.148;11.542;2022-12-18T16:39:26;-2.80;99.90
45012;DHT22;63444;48.148;11.542;2022-12-18T16:41:52;-2.80;99.90
45012;DHT22;63444;48.148;11.542;2022-12-18T16:44:18;-2.80;99.90
45012;DHT22;63444;48.148;11.542;2022-12-18T16:46:44;-2.80;99.90
45012;DHT22;63444;48.148;11.542;2022-12-18T16:49:17;-2.80;99.90
45012;DHT22;63444;48.148;11.542;2022-12-18T16:51:45;-2.80;99.90
45012;DHT22;63444;48.148;11.542;2022-12-18T16:54:11;-2.80;99.90
45012;DHT22;63444;48.148;11.542;2022-12-18T16:56:38;-2.70;99.90
45012;DHT22;63444;48.148;11.542;2022-12-18T16:59:04;-2.70;99.90
45012;DHT22;63444;48.148;11.542;2022-12-18T17:01:31;-2.70;99.90
45012;DHT22;63444;48.148;11.542;2022-12-18T17:04:00;-2.80;99.90
45012;DHT22;63444;48.148;11.542;2022-12-18T17:06:28;-2.80;99.90
45012;DHT22;63444;48.148;11.542;2022-12-18T17:08:57;-2.70;99.90
45012;DHT22;63444;48.148;11.542;2022-12-18T17:11:28;-2.70;99.90
45012;DHT22;63444;48.148;11.542;2022-12-18T17:13:53;-2.70;99.90
45012;DHT22;63444;48.148;11.542;2022-12-18T17:16:19;-2.60;99.90
45012;DHT22;63444;48.148;11.542;2022-12-18T17:18:45;-2.60;99.90